createdAt,value
2023-03-12T00:03:28.822Z,2.70
2023-03-12T00:09:30.325Z,2.77
2023-03-12T00:15:31.907Z,3.13
2023-03-12T00:21:33.418Z,3.30
2023-03-12T00:27:34.903Z,3.60
2023-03-12T00:33:36.322Z,2.57
2023-03-12T00:39:37.780Z,3.17
2023-03-12T00:45:39.242Z,2.90
2023-03-12T00:51:40.674Z,3.23
2023-03-12T00:57:42.118Z,2.95
2023-03-12T01:03:43.645Z,3.30
2023-03-12T01:09:45.532Z,3.50
2023-03-12T01:15:47.226Z,3.65
2023-03-12T01:21:48.732Z,3.13
2023-03-12T01:27:50.196Z,3.58
2023-03-12T01:33:52.228Z,3.47
2023-03-12T01:39:53.781Z,3.70
2023-03-12T01:46:01.987Z,3.67
2023-03-12T01:52:09.013Z,3.30
2023-03-12T01:58:19.407Z,3.22
2023-03-12T02:04:22.374Z,3.67
2023-03-12T02:10:25.103Z,3.45
2023-03-12T02:16:27.534Z,3.35
2023-03-12T02:22:29.313Z,3.17
2023-03-12T02:28:33.326Z,3.28
2023-03-12T02:34:35.849Z,3.17
2023-03-12T02:40:39.273Z,3.65
2023-03-12T02:46:42.357Z,3.67
2023-03-12T02:52:43.862Z,3.90
2023-03-12T02:58:45.408Z,3.58
2023-03-12T03:04:47.252Z,3.50
2023-03-12T03:10:50.441Z,3.08
2023-03-12T03:16:52.006Z,2.55
2023-03-12T03:22:57.263Z,3.43
2023-03-12T03:28:59.040Z,3.10
2023-03-12T03:35:00.668Z,2.97
2023-03-12T03:41:02.732Z,2.72
2023-03-12T03:47:05.999Z,2.83
2023-03-12T03:53:08.428Z,2.90
2023-03-12T03:59:09.923Z,2.53
2023-03-12T04:05:15.975Z,2.67
2023-03-12T04:11:19.091Z,3.33
2023-03-12T04:17:21.088Z,2.55
2023-03-12T04:23:22.693Z,2.90
2023-03-12T04:29:24.809Z,2.58
2023-03-12T04:35:28.050Z,2.10
2023-03-12T04:41:29.886Z,2.20
2023-03-12T04:47:39.428Z,2.00
2023-03-12T04:53:41.373Z,1.90
2023-03-12T04:59:44.965Z,2.17
2023-03-12T05:05:46.558Z,2.10
2023-03-12T05:11:48.241Z,1.70
2023-03-12T05:17:54.791Z,2.08
2023-03-12T05:23:56.704Z,1.57
2023-03-12T05:30:00.454Z,1.90
2023-03-12T05:36:02.176Z,1.87
2023-03-12T05:42:04.396Z,1.77
2023-03-12T05:48:06.043Z,1.90
2023-03-12T05:54:09.094Z,1.80
2023-03-12T06:00:13.172Z,2.15
2023-03-12T06:06:25.592Z,1.90
2023-03-12T06:12:27.692Z,1.85
2023-03-12T06:18:29.323Z,1.88
2023-03-12T06:24:31.723Z,2.13
2023-03-12T06:30:37.108Z,1.92
2023-03-12T06:36:38.655Z,2.07
2023-03-12T06:42:40.101Z,1.80
2023-03-12T06:48:41.759Z,1.70
2023-03-12T06:54:43.331Z,1.90
2023-03-12T07:00:44.867Z,1.90
2023-03-12T07:06:50.379Z,1.70
2023-03-12T07:12:52.025Z,2.10
2023-03-12T07:18:53.610Z,1.80
2023-03-12T07:24:55.072Z,2.07
2023-03-12T07:31:00.603Z,1.60
2023-03-12T07:37:02.079Z,1.90
2023-03-12T07:43:05.438Z,1.80
2023-03-12T07:49:07.343Z,1.88
2023-03-12T07:55:09.774Z,1.73
2023-03-12T08:01:11.374Z,2.25
2023-03-12T08:07:13.215Z,1.90
2023-03-12T08:13:14.711Z,1.97
2023-03-12T08:19:16.229Z,2.30
2023-03-12T08:25:18.568Z,1.80
2023-03-12T08:31:20.032Z,1.70
2023-03-12T08:37:22.571Z,1.80
2023-03-12T08:43:24.520Z,1.70
2023-03-12T08:49:26.055Z,1.77
2023-03-12T08:55:30.669Z,1.60
2023-03-12T09:01:32.145Z,1.88
2023-03-12T09:07:33.950Z,1.90
2023-03-12T09:13:54.958Z,1.87
2023-03-12T09:19:58.015Z,1.85
2023-03-12T09:25:59.493Z,1.60
2023-03-12T09:32:01.035Z,1.60
2023-03-12T09:38:05.253Z,1.77
2023-03-12T09:44:13.809Z,1.60
2023-03-12T09:50:44.984Z,1.52
2023-03-12T09:56:46.903Z,1.80
2023-03-12T10:02:48.425Z,1.90
2023-03-12T10:09:02.911Z,1.90
2023-03-12T10:15:23.371Z,2.37
2023-03-12T10:21:44.387Z,2.50
2023-03-12T10:27:46.179Z,2.70
2023-03-12T10:33:58.881Z,2.55
2023-03-12T10:40:02.060Z,3.13
2023-03-12T10:46:30.669Z,3.20
2023-03-12T10:52:32.773Z,2.97
2023-03-12T10:58:35.726Z,3.17
2023-03-12T11:04:37.471Z,3.13
2023-03-12T11:10:42.395Z,3.00
2023-03-12T11:16:43.910Z,2.67
2023-03-12T11:22:45.434Z,2.78
2023-03-12T11:28:50.069Z,2.90
2023-03-12T11:34:52.675Z,3.20
2023-03-12T11:41:02.202Z,2.90
2023-03-12T11:47:14.592Z,2.73
2023-03-12T11:53:34.858Z,2.80
2023-03-12T11:59:48.527Z,2.90
2023-03-12T12:06:05.952Z,2.90
2023-03-12T12:12:13.266Z,2.40
2023-03-12T12:18:26.597Z,2.70
2023-03-12T12:24:40.845Z,2.65
2023-03-12T12:30:57.598Z,2.70
2023-03-12T12:37:14.212Z,2.60
2023-03-12T12:43:22.778Z,2.50
2023-03-12T12:49:27.245Z,2.37
2023-03-12T12:55:33.242Z,2.67
2023-03-12T13:01:36.228Z,2.23
2023-03-12T13:07:37.828Z,2.33
2023-03-12T13:13:39.403Z,1.98
2023-03-12T13:19:45.057Z,1.53
2023-03-12T13:26:01.272Z,1.70
2023-03-12T13:32:02.976Z,1.90
2023-03-12T13:38:26.281Z,1.83
2023-03-12T13:44:28.792Z,1.77
2023-03-12T13:50:30.869Z,1.57
2023-03-12T13:56:34.798Z,1.83
2023-03-12T14:02:38.207Z,1.83
2023-03-12T14:08:54.754Z,1.70
2023-03-12T14:15:03.274Z,2.05
2023-03-12T14:21:09.496Z,2.00
2023-03-12T14:27:17.716Z,2.60
2023-03-12T14:33:20.991Z,2.33
2023-03-12T14:39:28.728Z,2.25
2023-03-12T14:45:30.173Z,2.83
2023-03-12T14:51:35.652Z,2.50
2023-03-12T14:57:37.352Z,2.60
2023-03-12T15:03:44.627Z,3.00
2023-03-12T15:09:52.124Z,2.53
2023-03-12T15:15:54.781Z,2.72
2023-03-12T15:21:56.473Z,2.90
2023-03-12T15:28:01.638Z,2.78
2023-03-12T15:34:04.926Z,3.10
2023-03-12T15:40:08.293Z,3.40
2023-03-12T15:46:12.198Z,3.30
2023-03-12T15:52:19.814Z,2.97
2023-03-12T15:58:29.842Z,2.80
2023-03-12T16:04:31.437Z,2.53
2023-03-12T16:10:35.950Z,2.38
2023-03-12T16:16:37.444Z,2.33
2023-03-12T16:22:39.154Z,2.37
2023-03-12T16:28:40.969Z,2.63
2023-03-12T16:34:42.963Z,2.13
2023-03-12T16:40:46.834Z,3.00
2023-03-12T16:46:48.566Z,2.50
2023-03-12T16:52:53.262Z,2.70
2023-03-12T16:58:54.924Z,6.47
2023-03-12T17:04:57.820Z,4.00
2023-03-12T17:10:59.821Z,3.40
2023-03-12T17:17:01.478Z,3.28
2023-03-12T17:23:03.663Z,3.57
2023-03-12T17:29:05.222Z,2.88
2023-03-12T17:35:07.026Z,2.90
2023-03-12T17:41:23.479Z,2.90
2023-03-12T17:47:28.794Z,3.08
2023-03-12T17:53:31.369Z,3.00
2023-03-12T17:59:32.932Z,3.22
2023-03-12T18:05:38.224Z,2.80
2023-03-12T18:11:39.765Z,2.40
2023-03-12T18:17:41.820Z,2.60
2023-03-12T18:23:46.072Z,2.60
2023-03-12T18:29:48.365Z,2.40
2023-03-12T18:35:50.519Z,2.30
2023-03-12T18:41:54.742Z,2.30
2023-03-12T18:47:56.669Z,2.30
2023-03-12T18:53:58.393Z,2.53
2023-03-12T19:00:00.438Z,2.33
2023-03-12T19:06:06.839Z,2.90
2023-03-12T19:12:10.929Z,2.70
2023-03-12T19:18:12.716Z,3.10
2023-03-12T19:24:14.431Z,2.87
2023-03-12T19:30:16.451Z,3.10
2023-03-12T19:36:18.297Z,2.70
2023-03-12T19:42:20.091Z,2.75
2023-03-12T19:48:22.555Z,3.10
2023-03-12T19:54:24.362Z,3.00
2023-03-12T20:00:27.093Z,3.42
2023-03-12T20:06:28.848Z,3.17
2023-03-12T20:12:30.626Z,2.75
2023-03-12T20:18:32.443Z,3.08
2023-03-12T20:24:34.508Z,3.10
2023-03-12T20:30:36.664Z,3.25
2023-03-12T20:36:38.453Z,3.23
2023-03-12T20:42:41.585Z,3.00
2023-03-12T20:48:45.361Z,3.10
2023-03-12T20:54:46.850Z,2.83
2023-03-12T21:00:48.364Z,2.85
2023-03-12T21:06:51.681Z,2.60
2023-03-12T21:12:53.280Z,2.78
2023-03-12T21:18:55.333Z,2.72
2023-03-12T21:24:57.268Z,2.40
2023-03-12T21:31:06.189Z,2.35
2023-03-12T21:37:08.738Z,2.63
2023-03-12T21:43:10.279Z,2.50
2023-03-12T21:49:13.779Z,2.60
2023-03-12T21:55:16.191Z,3.17
2023-03-12T22:01:18.717Z,2.15
2023-03-12T22:07:20.432Z,2.67
2023-03-12T22:13:21.916Z,2.67
2023-03-12T22:19:24.280Z,2.58
2023-03-12T22:25:25.774Z,2.40
2023-03-12T22:31:29.212Z,2.75
2023-03-12T22:37:30.717Z,2.70
2023-03-12T22:43:32.145Z,2.47
2023-03-12T22:49:33.762Z,2.40
2023-03-12T22:55:35.258Z,2.87
2023-03-12T23:01:36.735Z,2.75
2023-03-12T23:07:38.217Z,3.23
2023-03-12T23:13:41.294Z,3.20
2023-03-12T23:19:42.802Z,3.30
2023-03-12T23:25:51.868Z,3.30
2023-03-12T23:31:53.342Z,2.85
2023-03-12T23:37:56.428Z,3.37
2023-03-12T23:43:58.495Z,3.33
2023-03-12T23:49:59.865Z,4.32
2023-03-12T23:56:02.293Z,3.50
